sensor_id;sensor_type;location;lat;lon;timestamp;P1;durP1;ratioP1;P2;durP2;ratioP2
41885;SDS011;27567;43.084;25.616;2022-09-03T00:04:52;3.75;;;2.65;;
41885;SDS011;27567;43.084;25.616;2022-09-03T00:08:09;4.90;;;2.90;;
41885;SDS011;27567;43.084;25.616;2022-09-03T00:11:18;2.30;;;2.10;;
41885;SDS011;27567;43.084;25.616;2022-09-03T00:14:09;3.65;;;1.83;;
41885;SDS011;27567;43.084;25.616;2022-09-03T00:17:03;5.28;;;2.28;;
41885;SDS011;27567;43.084;25.616;2022-09-03T00:19:56;2.88;;;1.80;;
41885;SDS011;27567;43.084;25.616;2022-09-03T00:22:48;3.63;;;1.60;;
41885;SDS011;27567;43.084;25.616;2022-09-03T00:29:00;2.05;;;1.80;;
41885;SDS011;27567;43.084;25.616;2022-09-03T00:31:50;1.83;;;1.73;;
41885;SDS011;27567;43.084;25.616;2022-09-03T00:34:39;2.92;;;2.17;;
41885;SDS011;27567;43.084;25.616;2022-09-03T00:37:27;5.88;;;2.40;;
41885;SDS011;27567;43.084;25.616;2022-09-03T00:40:18;5.97;;;2.58;;
41885;SDS011;27567;43.084;25.616;2022-09-03T00:46:43;2.80;;;2.25;;
41885;SDS011;27567;43.084;25.616;2022-09-03T01:07:10;4.03;;;2.20;;
41885;SDS011;27567;43.084;25.616;2022-09-03T01:13:35;7.47;;;2.17;;
41885;SDS011;27567;43.084;25.616;2022-09-03T01:16:37;3.97;;;1.73;;
41885;SDS011;27567;43.084;25.616;2022-09-03T01:26:09;3.78;;;1.73;;
41885;SDS011;27567;43.084;25.616;2022-09-03T01:41:46;1.85;;;1.70;;
41885;SDS011;27567;43.084;25.616;2022-09-03T01:45:05;1.75;;;1.58;;
41885;SDS011;27567;43.084;25.616;2022-09-03T01:50:57;2.95;;;1.73;;
41885;SDS011;27567;43.084;25.616;2022-09-03T01:57:23;2.33;;;2.03;;
41885;SDS011;27567;43.084;25.616;2022-09-03T02:00:11;4.20;;;1.90;;
41885;SDS011;27567;43.084;25.616;2022-09-03T02:02:59;4.22;;;2.22;;
41885;SDS011;27567;43.084;25.616;2022-09-03T02:05:48;2.33;;;1.88;;
41885;SDS011;27567;43.084;25.616;2022-09-03T02:08:35;3.95;;;2.30;;
41885;SDS011;27567;43.084;25.616;2022-09-03T02:11:20;2.85;;;1.90;;
41885;SDS011;27567;43.084;25.616;2022-09-03T02:14:04;2.03;;;1.83;;
41885;SDS011;27567;43.084;25.616;2022-09-03T02:16:48;3.53;;;1.95;;
41885;SDS011;27567;43.084;25.616;2022-09-03T02:19:32;5.82;;;2.10;;
41885;SDS011;27567;43.084;25.616;2022-09-03T02:22:20;3.10;;;1.95;;
41885;SDS011;27567;43.084;25.616;2022-09-03T02:25:04;5.03;;;2.00;;
41885;SDS011;27567;43.084;25.616;2022-09-03T02:27:49;4.85;;;2.13;;
41885;SDS011;27567;43.084;25.616;2022-09-03T02:30:33;5.95;;;2.35;;
41885;SDS011;27567;43.084;25.616;2022-09-03T02:33:17;3.60;;;2.70;;
41885;SDS011;27567;43.084;25.616;2022-09-03T02:36:03;2.50;;;2.22;;
41885;SDS011;27567;43.084;25.616;2022-09-03T02:38:49;3.60;;;1.83;;
41885;SDS011;27567;43.084;25.616;2022-09-03T02:41:33;3.00;;;2.00;;
41885;SDS011;27567;43.084;25.616;2022-09-03T02:44:23;2.88;;;2.28;;
41885;SDS011;27567;43.084;25.616;2022-09-03T02:47:14;2.92;;;2.15;;
41885;SDS011;27567;43.084;25.616;2022-09-03T02:49:58;3.22;;;2.13;;
41885;SDS011;27567;43.084;25.616;2022-09-03T02:52:42;2.83;;;2.08;;
41885;SDS011;27567;43.084;25.616;2022-09-03T02:55:25;2.60;;;1.90;;
41885;SDS011;27567;43.084;25.616;2022-09-03T02:58:09;2.78;;;2.10;;
41885;SDS011;27567;43.084;25.616;2022-09-03T03:00:54;3.28;;;1.70;;
41885;SDS011;27567;43.084;25.616;2022-09-03T03:03:38;3.67;;;1.90;;
41885;SDS011;27567;43.084;25.616;2022-09-03T03:06:22;2.28;;;1.55;;
41885;SDS011;27567;43.084;25.616;2022-09-03T03:09:06;2.55;;;1.50;;
41885;SDS011;27567;43.084;25.616;2022-09-03T03:11:51;2.92;;;1.30;;
41885;SDS011;27567;43.084;25.616;2022-09-03T03:14:36;2.92;;;1.50;;
41885;SDS011;27567;43.084;25.616;2022-09-03T03:17:20;1.55;;;1.45;;
41885;SDS011;27567;43.084;25.616;2022-09-03T03:20:04;5.43;;;1.60;;
41885;SDS011;27567;43.084;25.616;2022-09-03T03:22:49;2.47;;;1.45;;
41885;SDS011;27567;43.084;25.616;2022-09-03T03:25:33;1.80;;;1.20;;
41885;SDS011;27567;43.084;25.616;2022-09-03T03:28:18;1.30;;;1.10;;
41885;SDS011;27567;43.084;25.616;2022-09-03T03:31:04;3.20;;;1.15;;
41885;SDS011;27567;43.084;25.616;2022-09-03T03:33:54;1.13;;;0.98;;
41885;SDS011;27567;43.084;25.616;2022-09-03T03:36:43;4.93;;;1.38;;
41885;SDS011;27567;43.084;25.616;2022-09-03T03:39:27;1.13;;;1.02;;
41885;SDS011;27567;43.084;25.616;2022-09-03T03:42:11;1.00;;;0.98;;
41885;SDS011;27567;43.084;25.616;2022-09-03T03:44:56;4.30;;;1.50;;
41885;SDS011;27567;43.084;25.616;2022-09-03T03:47:40;3.60;;;1.40;;
41885;SDS011;27567;43.084;25.616;2022-09-03T03:50:24;3.22;;;1.40;;
41885;SDS011;27567;43.084;25.616;2022-09-03T03:53:08;1.65;;;1.50;;
41885;SDS011;27567;43.084;25.616;2022-09-03T03:55:53;2.88;;;2.35;;
41885;SDS011;27567;43.084;25.616;2022-09-03T03:58:40;2.95;;;1.52;;
41885;SDS011;27567;43.084;25.616;2022-09-03T04:01:27;3.17;;;2.03;;
41885;SDS011;27567;43.084;25.616;2022-09-03T04:04:11;3.15;;;1.70;;
41885;SDS011;27567;43.084;25.616;2022-09-03T04:06:55;5.63;;;2.00;;
41885;SDS011;27567;43.084;25.616;2022-09-03T04:09:39;4.63;;;1.90;;
41885;SDS011;27567;43.084;25.616;2022-09-03T04:12:23;2.47;;;2.03;;
41885;SDS011;27567;43.084;25.616;2022-09-03T04:15:07;2.30;;;1.65;;
41885;SDS011;27567;43.084;25.616;2022-09-03T04:17:55;2.75;;;1.83;;
41885;SDS011;27567;43.084;25.616;2022-09-03T04:20:39;2.25;;;1.48;;
41885;SDS011;27567;43.084;25.616;2022-09-03T04:23:22;4.97;;;2.13;;
41885;SDS011;27567;43.084;25.616;2022-09-03T04:26:07;2.88;;;1.58;;
41885;SDS011;27567;43.084;25.616;2022-09-03T04:28:53;1.88;;;1.77;;
41885;SDS011;27567;43.084;25.616;2022-09-03T04:31:37;2.80;;;2.03;;
41885;SDS011;27567;43.084;25.616;2022-09-03T04:34:22;2.83;;;1.60;;
41885;SDS011;27567;43.084;25.616;2022-09-03T04:37:06;1.55;;;1.42;;
41885;SDS011;27567;43.084;25.616;2022-09-03T04:39:50;2.53;;;1.50;;
41885;SDS011;27567;43.084;25.616;2022-09-03T04:42:35;1.27;;;1.17;;
41885;SDS011;27567;43.084;25.616;2022-09-03T04:45:19;1.85;;;1.50;;
41885;SDS011;27567;43.084;25.616;2022-09-03T04:48:03;1.58;;;1.27;;
41885;SDS011;27567;43.084;25.616;2022-09-03T04:50:47;2.17;;;1.40;;
41885;SDS011;27567;43.084;25.616;2022-09-03T04:53:36;1.52;;;1.15;;
41885;SDS011;27567;43.084;25.616;2022-09-03T04:56:22;1.85;;;1.30;;
41885;SDS011;27567;43.084;25.616;2022-09-03T04:59:08;7.07;;;1.60;;
41885;SDS011;27567;43.084;25.616;2022-09-03T05:01:53;1.40;;;1.30;;
41885;SDS011;27567;43.084;25.616;2022-09-03T05:04:39;2.15;;;1.88;;
41885;SDS011;27567;43.084;25.616;2022-09-03T05:07:23;6.53;;;2.60;;
41885;SDS011;27567;43.084;25.616;2022-09-03T05:10:07;5.60;;;2.15;;
41885;SDS011;27567;43.084;25.616;2022-09-03T05:12:59;3.17;;;2.50;;
41885;SDS011;27567;43.084;25.616;2022-09-03T05:15:45;4.40;;;3.00;;
41885;SDS011;27567;43.084;25.616;2022-09-03T05:18:29;3.85;;;3.00;;
41885;SDS011;27567;43.084;25.616;2022-09-03T05:21:14;5.28;;;3.10;;
41885;SDS011;27567;43.084;25.616;2022-09-03T05:24:00;4.40;;;3.25;;
41885;SDS011;27567;43.084;25.616;2022-09-03T05:26:45;4.00;;;3.40;;
41885;SDS011;27567;43.084;25.616;2022-09-03T05:29:29;6.72;;;4.07;;
41885;SDS011;27567;43.084;25.616;2022-09-03T05:32:13;6.03;;;3.47;;
41885;SDS011;27567;43.084;25.616;2022-09-03T05:34:59;5.85;;;3.72;;
41885;SDS011;27567;43.084;25.616;2022-09-03T05:37:44;4.63;;;3.88;;
41885;SDS011;27567;43.084;25.616;2022-09-03T05:40:28;4.40;;;4.00;;
41885;SDS011;27567;43.084;25.616;2022-09-03T05:43:12;4.80;;;3.83;;
41885;SDS011;27567;43.084;25.616;2022-09-03T05:46:03;4.22;;;3.63;;
41885;SDS011;27567;43.084;25.616;2022-09-03T05:48:49;5.47;;;3.70;;
41885;SDS011;27567;43.084;25.616;2022-09-03T05:51:34;3.88;;;3.30;;
41885;SDS011;27567;43.084;25.616;2022-09-03T05:54:19;3.97;;;3.38;;
41885;SDS011;27567;43.084;25.616;2022-09-03T05:57:03;6.97;;;4.20;;
41885;SDS011;27567;43.084;25.616;2022-09-03T05:59:47;4.57;;;3.53;;
41885;SDS011;27567;43.084;25.616;2022-09-03T06:02:31;5.13;;;4.03;;
41885;SDS011;27567;43.084;25.616;2022-09-03T06:05:19;5.22;;;4.38;;
41885;SDS011;27567;43.084;25.616;2022-09-03T06:08:06;6.88;;;4.55;;
41885;SDS011;27567;43.084;25.616;2022-09-03T06:10:56;5.05;;;4.40;;
41885;SDS011;27567;43.084;25.616;2022-09-03T06:13:42;5.53;;;4.40;;
41885;SDS011;27567;43.084;25.616;2022-09-03T06:16:26;5.93;;;4.55;;
41885;SDS011;27567;43.084;25.616;2022-09-03T06:19:10;7.43;;;4.75;;
41885;SDS011;27567;43.084;25.616;2022-09-03T06:21:56;6.18;;;5.30;;
41885;SDS011;27567;43.084;25.616;2022-09-03T06:24:40;5.88;;;5.28;;
41885;SDS011;27567;43.084;25.616;2022-09-03T06:27:24;7.15;;;5.65;;
41885;SDS011;27567;43.084;25.616;2022-09-03T06:30:08;9.35;;;5.80;;
41885;SDS011;27567;43.084;25.616;2022-09-03T06:32:52;9.80;;;6.63;;
41885;SDS011;27567;43.084;25.616;2022-09-03T06:35:39;10.93;;;6.38;;
41885;SDS011;27567;43.084;25.616;2022-09-03T06:38:25;7.10;;;6.40;;
41885;SDS011;27567;43.084;25.616;2022-09-03T06:41:15;7.60;;;6.30;;
41885;SDS011;27567;43.084;25.616;2022-09-03T06:44:05;8.32;;;6.78;;
41885;SDS011;27567;43.084;25.616;2022-09-03T06:49:38;8.15;;;5.45;;
41885;SDS011;27567;43.084;25.616;2022-09-03T06:52:22;8.38;;;6.00;;
41885;SDS011;27567;43.084;25.616;2022-09-03T06:55:06;9.20;;;6.18;;
41885;SDS011;27567;43.084;25.616;2022-09-03T06:57:57;7.82;;;6.10;;
41885;SDS011;27567;43.084;25.616;2022-09-03T07:00:41;7.78;;;6.40;;
41885;SDS011;27567;43.084;25.616;2022-09-03T07:03:32;8.88;;;5.40;;
41885;SDS011;27567;43.084;25.616;2022-09-03T07:06:18;7.03;;;6.00;;
41885;SDS011;27567;43.084;25.616;2022-09-03T07:09:03;10.85;;;6.55;;
41885;SDS011;27567;43.084;25.616;2022-09-03T07:11:48;32.78;;;15.90;;
41885;SDS011;27567;43.084;25.616;2022-09-03T07:14:32;7.70;;;5.88;;
41885;SDS011;27567;43.084;25.616;2022-09-03T07:17:16;13.07;;;6.80;;
41885;SDS011;27567;43.084;25.616;2022-09-03T07:20:00;7.53;;;5.07;;
41885;SDS011;27567;43.084;25.616;2022-09-03T07:22:44;6.40;;;4.57;;
41885;SDS011;27567;43.084;25.616;2022-09-03T07:25:28;6.75;;;4.45;;
41885;SDS011;27567;43.084;25.616;2022-09-03T07:28:14;5.25;;;4.32;;
41885;SDS011;27567;43.084;25.616;2022-09-03T07:31:01;5.38;;;4.68;;
41885;SDS011;27567;43.084;25.616;2022-09-03T07:33:53;8.93;;;4.53;;
41885;SDS011;27567;43.084;25.616;2022-09-03T07:36:39;6.53;;;4.30;;
41885;SDS011;27567;43.084;25.616;2022-09-03T07:39:29;6.97;;;4.22;;
41885;SDS011;27567;43.084;25.616;2022-09-03T07:42:13;8.50;;;4.50;;
41885;SDS011;27567;43.084;25.616;2022-09-03T07:44:57;6.97;;;4.35;;
41885;SDS011;27567;43.084;25.616;2022-09-03T07:47:45;6.78;;;4.60;;
41885;SDS011;27567;43.084;25.616;2022-09-03T07:50:32;5.72;;;3.97;;
41885;SDS011;27567;43.084;25.616;2022-09-03T07:53:24;4.93;;;3.72;;
41885;SDS011;27567;43.084;25.616;2022-09-03T07:56:11;8.35;;;5.28;;
41885;SDS011;27567;43.084;25.616;2022-09-03T07:58:55;5.32;;;4.03;;
41885;SDS011;27567;43.084;25.616;2022-09-03T08:01:40;5.45;;;3.92;;
41885;SDS011;27567;43.084;25.616;2022-09-03T08:04:24;4.40;;;3.92;;
41885;SDS011;27567;43.084;25.616;2022-09-03T08:07:08;5.10;;;3.92;;
41885;SDS011;27567;43.084;25.616;2022-09-03T08:09:53;5.45;;;4.00;;
41885;SDS011;27567;43.084;25.616;2022-09-03T08:12:37;6.00;;;3.78;;
41885;SDS011;27567;43.084;25.616;2022-09-03T08:15:22;5.43;;;4.03;;
41885;SDS011;27567;43.084;25.616;2022-09-03T08:18:06;5.88;;;3.75;;
41885;SDS011;27567;43.084;25.616;2022-09-03T08:20:50;5.97;;;3.95;;
41885;SDS011;27567;43.084;25.616;2022-09-03T08:23:38;9.27;;;5.05;;
41885;SDS011;27567;43.084;25.616;2022-09-03T08:26:23;4.10;;;3.70;;
41885;SDS011;27567;43.084;25.616;2022-09-03T08:29:07;5.35;;;4.35;;
41885;SDS011;27567;43.084;25.616;2022-09-03T08:31:52;4.10;;;3.70;;
41885;SDS011;27567;43.084;25.616;2022-09-03T08:34:36;7.28;;;3.95;;
41885;SDS011;27567;43.084;25.616;2022-09-03T08:37:21;7.18;;;3.83;;
41885;SDS011;27567;43.084;25.616;2022-09-03T08:40:08;4.97;;;4.20;;
41885;SDS011;27567;43.084;25.616;2022-09-03T08:43:11;6.35;;;3.67;;
41885;SDS011;27567;43.084;25.616;2022-09-03T08:46:01;5.05;;;3.45;;
41885;SDS011;27567;43.084;25.616;2022-09-03T08:48:45;3.85;;;3.13;;
41885;SDS011;27567;43.084;25.616;2022-09-03T08:51:30;3.30;;;2.97;;
41885;SDS011;27567;43.084;25.616;2022-09-03T08:54:16;4.78;;;3.22;;
41885;SDS011;27567;43.084;25.616;2022-09-03T08:57:03;4.97;;;3.00;;
41885;SDS011;27567;43.084;25.616;2022-09-03T08:59:51;4.85;;;3.30;;
41885;SDS011;27567;43.084;25.616;2022-09-03T09:05:40;5.55;;;3.20;;
41885;SDS011;27567;43.084;25.616;2022-09-03T09:11:47;4.72;;;2.90;;
41885;SDS011;27567;43.084;25.616;2022-09-03T09:20:28;7.80;;;3.22;;
41885;SDS011;27567;43.084;25.616;2022-09-03T09:23:36;3.72;;;3.40;;
41885;SDS011;27567;43.084;25.616;2022-09-03T09:26:25;3.60;;;3.28;;
41885;SDS011;27567;43.084;25.616;2022-09-03T09:29:14;4.55;;;2.70;;
41885;SDS011;27567;43.084;25.616;2022-09-03T09:31:59;3.88;;;3.00;;
41885;SDS011;27567;43.084;25.616;2022-09-03T09:34:44;5.40;;;3.00;;
41885;SDS011;27567;43.084;25.616;2022-09-03T09:37:28;8.82;;;3.53;;
41885;SDS011;27567;43.084;25.616;2022-09-03T09:40:21;4.22;;;3.30;;
41885;SDS011;27567;43.084;25.616;2022-09-03T09:43:11;3.95;;;3.55;;
41885;SDS011;27567;43.084;25.616;2022-09-03T09:46:04;5.47;;;3.63;;
41885;SDS011;27567;43.084;25.616;2022-09-03T09:48:55;3.97;;;3.67;;
41885;SDS011;27567;43.084;25.616;2022-09-03T09:51:41;4.43;;;3.70;;
41885;SDS011;27567;43.084;25.616;2022-09-03T09:54:25;4.20;;;3.80;;
41885;SDS011;27567;43.084;25.616;2022-09-03T09:57:17;4.05;;;3.65;;
41885;SDS011;27567;43.084;25.616;2022-09-03T10:00:07;5.70;;;4.00;;
41885;SDS011;27567;43.084;25.616;2022-09-03T10:02:58;4.65;;;4.25;;
41885;SDS011;27567;43.084;25.616;2022-09-03T10:05:43;4.13;;;3.72;;
41885;SDS011;27567;43.084;25.616;2022-09-03T10:09:08;4.00;;;3.70;;
41885;SDS011;27567;43.084;25.616;2022-09-03T10:12:08;5.88;;;4.25;;
41885;SDS011;27567;43.084;25.616;2022-09-03T10:15:11;4.50;;;4.10;;
41885;SDS011;27567;43.084;25.616;2022-09-03T10:21:02;5.22;;;4.15;;
41885;SDS011;27567;43.084;25.616;2022-09-03T10:24:10;5.35;;;4.35;;
41885;SDS011;27567;43.084;25.616;2022-09-03T10:27:09;6.13;;;5.18;;
41885;SDS011;27567;43.084;25.616;2022-09-03T10:29:57;6.25;;;5.18;;
41885;SDS011;27567;43.084;25.616;2022-09-03T10:36:14;7.25;;;5.22;;
41885;SDS011;27567;43.084;25.616;2022-09-03T10:39:12;6.68;;;5.05;;
41885;SDS011;27567;43.084;25.616;2022-09-03T10:42:25;5.25;;;4.75;;
41885;SDS011;27567;43.084;25.616;2022-09-03T10:48:38;5.00;;;4.30;;
41885;SDS011;27567;43.084;25.616;2022-09-03T10:51:41;4.88;;;4.30;;
41885;SDS011;27567;43.084;25.616;2022-09-03T10:54:51;4.82;;;4.30;;
41885;SDS011;27567;43.084;25.616;2022-09-03T11:01:41;6.43;;;4.57;;
41885;SDS011;27567;43.084;25.616;2022-09-03T11:07:27;6.50;;;4.95;;
41885;SDS011;27567;43.084;25.616;2022-09-03T11:15:58;6.18;;;5.05;;
41885;SDS011;27567;43.084;25.616;2022-09-03T11:18:50;6.28;;;5.55;;
41885;SDS011;27567;43.084;25.616;2022-09-03T11:21:39;6.38;;;5.78;;
41885;SDS011;27567;43.084;25.616;2022-09-03T11:24:28;6.13;;;5.53;;
41885;SDS011;27567;43.084;25.616;2022-09-03T11:27:19;8.45;;;6.20;;
41885;SDS011;27567;43.084;25.616;2022-09-03T11:30:21;6.00;;;5.30;;
41885;SDS011;27567;43.084;25.616;2022-09-03T11:33:20;9.60;;;5.72;;
41885;SDS011;27567;43.084;25.616;2022-09-03T11:36:10;7.15;;;5.97;;
41885;SDS011;27567;43.084;25.616;2022-09-03T11:42:23;8.25;;;7.05;;
41885;SDS011;27567;43.084;25.616;2022-09-03T11:48:17;6.68;;;6.00;;
41885;SDS011;27567;43.084;25.616;2022-09-03T11:57:09;8.80;;;6.68;;
41885;SDS011;27567;43.084;25.616;2022-09-03T12:00:10;8.45;;;7.65;;
41885;SDS011;27567;43.084;25.616;2022-09-03T12:03:11;10.10;;;8.65;;
41885;SDS011;27567;43.084;25.616;2022-09-03T12:09:33;9.55;;;8.55;;
41885;SDS011;27567;43.084;25.616;2022-09-03T12:18:44;10.80;;;9.18;;
41885;SDS011;27567;43.084;25.616;2022-09-03T12:21:39;10.38;;;8.02;;
41885;SDS011;27567;43.084;25.616;2022-09-03T12:24:25;11.07;;;7.10;;
41885;SDS011;27567;43.084;25.616;2022-09-03T12:27:21;8.90;;;7.07;;
41885;SDS011;27567;43.084;25.616;2022-09-03T12:30:16;8.50;;;7.05;;
41885;SDS011;27567;43.084;25.616;2022-09-03T12:33:03;8.88;;;6.82;;
41885;SDS011;27567;43.084;25.616;2022-09-03T12:35:55;6.85;;;6.15;;
41885;SDS011;27567;43.084;25.616;2022-09-03T12:38:40;11.57;;;6.70;;
41885;SDS011;27567;43.084;25.616;2022-09-03T12:41:26;6.97;;;6.28;;
41885;SDS011;27567;43.084;25.616;2022-09-03T12:44:11;11.07;;;7.32;;
41885;SDS011;27567;43.084;25.616;2022-09-03T12:46:59;7.85;;;6.03;;
41885;SDS011;27567;43.084;25.616;2022-09-03T12:50:07;9.13;;;6.32;;
41885;SDS011;27567;43.084;25.616;2022-09-03T12:53:00;8.48;;;6.72;;
41885;SDS011;27567;43.084;25.616;2022-09-03T12:58:40;8.82;;;6.90;;
41885;SDS011;27567;43.084;25.616;2022-09-03T13:01:30;7.45;;;5.47;;
41885;SDS011;27567;43.084;25.616;2022-09-03T13:04:22;8.20;;;5.97;;
41885;SDS011;27567;43.084;25.616;2022-09-03T13:07:12;6.18;;;5.57;;
41885;SDS011;27567;43.084;25.616;2022-09-03T13:10:05;7.72;;;6.55;;
41885;SDS011;27567;43.084;25.616;2022-09-03T13:13:00;7.45;;;6.40;;
41885;SDS011;27567;43.084;25.616;2022-09-03T13:15:59;6.05;;;5.13;;
41885;SDS011;27567;43.084;25.616;2022-09-03T13:30:54;19.20;;;10.45;;
41885;SDS011;27567;43.084;25.616;2022-09-03T13:33:44;13.48;;;9.48;;
41885;SDS011;27567;43.084;25.616;2022-09-03T13:36:36;9.52;;;7.50;;
41885;SDS011;27567;43.084;25.616;2022-09-03T13:42:37;14.63;;;9.38;;
41885;SDS011;27567;43.084;25.616;2022-09-03T13:45:36;13.90;;;10.93;;
41885;SDS011;27567;43.084;25.616;2022-09-03T13:48:28;15.43;;;11.30;;
41885;SDS011;27567;43.084;25.616;2022-09-03T13:51:41;17.52;;;12.70;;
41885;SDS011;27567;43.084;25.616;2022-09-03T13:54:36;19.35;;;13.85;;
41885;SDS011;27567;43.084;25.616;2022-09-03T14:03:59;21.50;;;14.88;;
41885;SDS011;27567;43.084;25.616;2022-09-03T14:06:48;26.88;;;14.45;;
41885;SDS011;27567;43.084;25.616;2022-09-03T14:09:55;21.73;;;14.63;;
41885;SDS011;27567;43.084;25.616;2022-09-03T14:12:49;18.83;;;13.77;;
41885;SDS011;27567;43.084;25.616;2022-09-03T14:15:54;15.93;;;12.15;;
41885;SDS011;27567;43.084;25.616;2022-09-03T14:21:49;17.13;;;12.68;;
41885;SDS011;27567;43.084;25.616;2022-09-03T14:27:41;17.33;;;12.20;;
41885;SDS011;27567;43.084;25.616;2022-09-03T14:33:43;17.40;;;12.30;;
41885;SDS011;27567;43.084;25.616;2022-09-03T14:43:06;14.02;;;10.13;;
41885;SDS011;27567;43.084;25.616;2022-09-03T14:49:03;12.93;;;9.95;;
41885;SDS011;27567;43.084;25.616;2022-09-03T14:54:51;19.77;;;11.95;;
41885;SDS011;27567;43.084;25.616;2022-09-03T14:58:13;16.60;;;11.98;;
41885;SDS011;27567;43.084;25.616;2022-09-03T15:01:19;16.73;;;12.18;;
41885;SDS011;27567;43.084;25.616;2022-09-03T15:07:35;39.97;;;23.90;;
41885;SDS011;27567;43.084;25.616;2022-09-03T15:10:26;17.88;;;11.85;;
41885;SDS011;27567;43.084;25.616;2022-09-03T15:13:34;21.08;;;13.57;;
41885;SDS011;27567;43.084;25.616;2022-09-03T15:16:33;37.25;;;19.15;;
41885;SDS011;27567;43.084;25.616;2022-09-03T15:25:37;129.82;;;60.80;;
41885;SDS011;27567;43.084;25.616;2022-09-03T15:34:54;25.02;;;17.10;;
41885;SDS011;27567;43.084;25.616;2022-09-03T15:37:57;27.63;;;16.80;;
41885;SDS011;27567;43.084;25.616;2022-09-03T15:40:48;23.08;;;15.32;;
41885;SDS011;27567;43.084;25.616;2022-09-03T15:43:37;26.83;;;15.98;;
41885;SDS011;27567;43.084;25.616;2022-09-03T15:46:33;22.52;;;15.73;;
41885;SDS011;27567;43.084;25.616;2022-09-03T15:55:42;37.45;;;19.95;;
41885;SDS011;27567;43.084;25.616;2022-09-03T15:58:31;26.23;;;17.05;;
41885;SDS011;27567;43.084;25.616;2022-09-03T16:01:21;28.27;;;17.77;;
41885;SDS011;27567;43.084;25.616;2022-09-03T16:16:18;39.05;;;20.92;;
41885;SDS011;27567;43.084;25.616;2022-09-03T16:19:09;34.25;;;20.50;;
41885;SDS011;27567;43.084;25.616;2022-09-03T16:22:25;36.92;;;21.27;;
41885;SDS011;27567;43.084;25.616;2022-09-03T16:25:22;36.67;;;21.07;;
41885;SDS011;27567;43.084;25.616;2022-09-03T16:28:18;35.63;;;19.70;;
41885;SDS011;27567;43.084;25.616;2022-09-03T16:31:13;39.47;;;23.17;;
41885;SDS011;27567;43.084;25.616;2022-09-03T16:42:51;27.25;;;16.33;;
41885;SDS011;27567;43.084;25.616;2022-09-03T17:19:08;30.00;;;17.23;;
41885;SDS011;27567;43.084;25.616;2022-09-03T17:25:00;31.17;;;17.50;;
41885;SDS011;27567;43.084;25.616;2022-09-03T17:36:28;32.78;;;17.42;;
41885;SDS011;27567;43.084;25.616;2022-09-03T17:42:05;26.33;;;16.27;;
41885;SDS011;27567;43.084;25.616;2022-09-03T17:51:07;32.63;;;18.35;;
41885;SDS011;27567;43.084;25.616;2022-09-03T17:54:06;33.70;;;17.27;;
41885;SDS011;27567;43.084;25.616;2022-09-03T17:57:09;30.38;;;17.67;;
41885;SDS011;27567;43.084;25.616;2022-09-03T18:00:07;28.63;;;16.45;;
41885;SDS011;27567;43.084;25.616;2022-09-03T18:03:03;28.00;;;15.35;;
41885;SDS011;27567;43.084;25.616;2022-09-03T18:06:09;29.42;;;17.63;;
41885;SDS011;27567;43.084;25.616;2022-09-03T18:09:08;29.85;;;16.45;;
41885;SDS011;27567;43.084;25.616;2022-09-03T18:15:18;29.00;;;16.45;;
41885;SDS011;27567;43.084;25.616;2022-09-03T18:18:11;25.17;;;16.08;;
41885;SDS011;27567;43.084;25.616;2022-09-03T18:21:09;25.58;;;15.70;;
41885;SDS011;27567;43.084;25.616;2022-09-03T18:24:24;26.08;;;16.30;;
41885;SDS011;27567;43.084;25.616;2022-09-03T18:30:41;29.00;;;16.67;;
41885;SDS011;27567;43.084;25.616;2022-09-03T18:33:43;26.58;;;16.92;;
41885;SDS011;27567;43.084;25.616;2022-09-03T18:36:46;27.95;;;15.98;;
41885;SDS011;27567;43.084;25.616;2022-09-03T18:39:50;26.98;;;16.40;;
41885;SDS011;27567;43.084;25.616;2022-09-03T18:46:09;27.05;;;16.63;;
41885;SDS011;27567;43.084;25.616;2022-09-03T18:59:18;28.02;;;16.02;;
41885;SDS011;27567;43.084;25.616;2022-09-03T19:12:46;23.15;;;16.52;;
41885;SDS011;27567;43.084;25.616;2022-09-03T19:22:37;27.20;;;16.67;;
41885;SDS011;27567;43.084;25.616;2022-09-03T19:25:41;22.73;;;16.00;;
41885;SDS011;27567;43.084;25.616;2022-09-03T19:28:45;24.95;;;16.58;;
41885;SDS011;27567;43.084;25.616;2022-09-03T19:32:02;20.52;;;14.73;;
41885;SDS011;27567;43.084;25.616;2022-09-03T19:35:16;25.45;;;15.30;;
41885;SDS011;27567;43.084;25.616;2022-09-03T19:41:36;24.88;;;15.30;;
41885;SDS011;27567;43.084;25.616;2022-09-03T19:52:12;21.90;;;14.63;;
41885;SDS011;27567;43.084;25.616;2022-09-03T19:55:18;25.50;;;14.60;;
41885;SDS011;27567;43.084;25.616;2022-09-03T19:58:28;16.88;;;13.10;;
41885;SDS011;27567;43.084;25.616;2022-09-03T20:01:35;20.20;;;13.48;;
41885;SDS011;27567;43.084;25.616;2022-09-03T20:04:59;22.13;;;13.30;;
41885;SDS011;27567;43.084;25.616;2022-09-03T20:08:03;19.98;;;13.38;;
41885;SDS011;27567;43.084;25.616;2022-09-03T20:11:08;27.70;;;14.10;;
41885;SDS011;27567;43.084;25.616;2022-09-03T20:14:00;18.17;;;13.50;;
41885;SDS011;27567;43.084;25.616;2022-09-03T20:20:36;23.90;;;15.70;;
41885;SDS011;27567;43.084;25.616;2022-09-03T20:38:26;25.70;;;16.05;;
41885;SDS011;27567;43.084;25.616;2022-09-03T20:48:09;26.30;;;15.98;;
41885;SDS011;27567;43.084;25.616;2022-09-03T20:51:17;23.92;;;16.13;;
41885;SDS011;27567;43.084;25.616;2022-09-03T21:07:18;28.45;;;17.05;;
41885;SDS011;27567;43.084;25.616;2022-09-03T21:15:41;30.25;;;18.00;;
41885;SDS011;27567;43.084;25.616;2022-09-03T21:24:40;31.33;;;19.30;;
41885;SDS011;27567;43.084;25.616;2022-09-03T21:27:40;32.63;;;20.35;;
41885;SDS011;27567;43.084;25.616;2022-09-03T21:30:34;33.72;;;20.27;;
41885;SDS011;27567;43.084;25.616;2022-09-03T21:33:34;37.05;;;21.20;;
41885;SDS011;27567;43.084;25.616;2022-09-03T21:36:27;39.33;;;22.38;;
41885;SDS011;27567;43.084;25.616;2022-09-03T21:44:59;36.40;;;19.95;;
41885;SDS011;27567;43.084;25.616;2022-09-03T21:47:52;37.33;;;19.95;;
41885;SDS011;27567;43.084;25.616;2022-09-03T21:53:40;28.92;;;18.02;;
41885;SDS011;27567;43.084;25.616;2022-09-03T21:59:32;28.92;;;18.38;;
41885;SDS011;27567;43.084;25.616;2022-09-03T22:02:27;21.33;;;15.90;;
41885;SDS011;27567;43.084;25.616;2022-09-03T22:05:15;23.83;;;16.48;;
41885;SDS011;27567;43.084;25.616;2022-09-03T22:08:06;25.83;;;15.93;;
41885;SDS011;27567;43.084;25.616;2022-09-03T22:11:27;21.77;;;14.57;;
41885;SDS011;27567;43.084;25.616;2022-09-03T22:14:17;22.80;;;15.20;;
41885;SDS011;27567;43.084;25.616;2022-09-03T22:20:13;23.25;;;15.70;;
41885;SDS011;27567;43.084;25.616;2022-09-03T22:23:10;29.23;;;18.08;;
41885;SDS011;27567;43.084;25.616;2022-09-03T22:26:05;28.02;;;17.02;;
41885;SDS011;27567;43.084;25.616;2022-09-03T22:29:11;25.80;;;16.48;;
41885;SDS011;27567;43.084;25.616;2022-09-03T22:56:38;40.33;;;21.33;;
41885;SDS011;27567;43.084;25.616;2022-09-03T22:59:25;38.15;;;20.75;;
41885;SDS011;27567;43.084;25.616;2022-09-03T23:02:18;40.72;;;20.30;;
41885;SDS011;27567;43.084;25.616;2022-09-03T23:07:54;39.60;;;21.65;;
41885;SDS011;27567;43.084;25.616;2022-09-03T23:16:55;41.05;;;22.83;;
41885;SDS011;27567;43.084;25.616;2022-09-03T23:19:45;41.67;;;22.73;;
41885;SDS011;27567;43.084;25.616;2022-09-03T23:25:27;38.28;;;22.17;;
41885;SDS011;27567;43.084;25.616;2022-09-03T23:28:30;45.75;;;22.55;;
41885;SDS011;27567;43.084;25.616;2022-09-03T23:31:21;45.03;;;24.35;;
41885;SDS011;27567;43.084;25.616;2022-09-03T23:34:08;43.55;;;24.23;;
41885;SDS011;27567;43.084;25.616;2022-09-03T23:40:15;42.28;;;23.40;;
